Terminal Aerodrome Forecast
Issued by NWS Cleveland, OH

Home | Current Version | Previous Version | Graphics & Text | Print | Product List | Glossary On
Versions: 1 2 3 4 5 6 7 8 9 10 11 12 13 14 15 16 17 18 19 20 21 22 23 24 25 26 27 28 29
000
FTUS41 KCLE 221136
TAFMFD
TAF
KMFD 221136Z 2212/2312 03010KT 5SM -PL BR OVC040
      TEMPO 2212/2213 -FZRA OVC005
     FM221300 05009KT 3SM -RA OVC045
     FM221700 05010KT P6SM OVC007
     FM222300 05008KT P6SM OVC007
     FM231000 08008KT P6SM -RA OVC007=

USA.gov is the U.S. government's official web portal to all federal, state and local government web resources and services.